createdAt,value
2017-04-20T00:00:34.787Z,0
2017-04-20T00:01:36.038Z,0
2017-04-20T00:02:37.267Z,0
2017-04-20T00:03:38.528Z,0
2017-04-20T00:04:39.813Z,0
2017-04-20T00:05:42.046Z,0
2017-04-20T00:06:43.353Z,0
2017-04-20T00:07:44.731Z,0
2017-04-20T00:08:45.871Z,0
2017-04-20T00:09:47.173Z,0
2017-04-20T00:10:48.403Z,0
2017-04-20T00:11:49.652Z,0
2017-04-20T00:12:50.881Z,0
2017-04-20T00:13:52.118Z,0
2017-04-20T00:14:53.341Z,0
2017-04-20T00:15:54.567Z,0
2017-04-20T00:16:55.796Z,0
2017-04-20T00:17:57.202Z,0
2017-04-20T00:18:58.429Z,0
2017-04-20T00:19:59.689Z,0
2017-04-20T00:21:00.909Z,0
2017-04-20T00:22:02.144Z,0
2017-04-20T00:23:03.432Z,0
2017-04-20T00:24:04.670Z,0
2017-04-20T00:25:05.910Z,0
2017-04-20T00:26:07.153Z,0
2017-04-20T00:27:08.380Z,0
2017-04-20T00:28:09.690Z,0
2017-04-20T00:29:11.029Z,0
2017-04-20T00:30:12.272Z,0
2017-04-20T00:31:13.508Z,0
2017-04-20T00:32:14.737Z,0
2017-04-20T00:33:15.976Z,0
2017-04-20T00:34:17.230Z,0
2017-04-20T00:35:18.498Z,0
2017-04-20T00:36:19.733Z,0
2017-04-20T00:37:20.960Z,0
2017-04-20T00:38:22.187Z,0
2017-04-20T00:39:23.428Z,0
2017-04-20T00:40:24.688Z,0
2017-04-20T00:41:25.935Z,0
2017-04-20T00:42:27.287Z,0
2017-04-20T00:43:28.477Z,0
2017-04-20T00:44:29.747Z,0
2017-04-20T00:45:30.978Z,0
2017-04-20T00:46:32.213Z,0
2017-04-20T00:47:33.443Z,0
2017-04-20T00:48:34.685Z,0
2017-04-20T00:49:35.980Z,0
2017-04-20T00:50:37.217Z,0
2017-04-20T00:51:38.443Z,0
2017-04-20T00:52:39.692Z,0
2017-04-20T00:53:40.929Z,0
2017-04-20T00:54:42.151Z,0
2017-04-20T00:55:43.377Z,0
2017-04-20T00:56:44.621Z,0
2017-04-20T00:57:45.861Z,0
2017-04-20T00:58:47.116Z,0
2017-04-20T00:59:48.326Z,0
2017-04-20T01:00:49.560Z,0
2017-04-20T01:01:50.791Z,0
2017-04-20T01:02:52.224Z,0
2017-04-20T01:03:53.513Z,0
2017-04-20T01:04:54.744Z,0
2017-04-20T01:05:55.985Z,0
2017-04-20T01:06:57.257Z,0
2017-04-20T01:07:58.467Z,0
2017-04-20T01:08:59.804Z,0
2017-04-20T01:10:01.049Z,0
2017-04-20T01:11:02.280Z,0
2017-04-20T01:12:03.530Z,0
2017-04-20T01:13:04.828Z,0
2017-04-20T01:14:05.982Z,0
2017-04-20T01:15:07.278Z,0
2017-04-20T01:16:08.504Z,0
2017-04-20T01:17:09.740Z,0
2017-04-20T01:18:10.968Z,0
2017-04-20T01:19:12.285Z,0
2017-04-20T01:20:13.521Z,0
2017-04-20T01:21:14.863Z,0
2017-04-20T01:22:16.114Z,0
2017-04-20T01:23:17.359Z,0
2017-04-20T01:24:18.568Z,0
2017-04-20T01:25:19.815Z,0
2017-04-20T01:26:21.132Z,0
2017-04-20T01:27:22.355Z,0
2017-04-20T01:28:23.612Z,0
2017-04-20T01:29:24.817Z,0
2017-04-20T01:30:26.068Z,0
2017-04-20T01:31:27.277Z,0
2017-04-20T01:32:28.508Z,0
2017-04-20T01:34:54.159Z,0
2017-04-20T01:35:55.406Z,0
2017-04-20T01:36:56.636Z,0
2017-04-20T01:37:57.866Z,0
2017-04-20T01:38:59.111Z,0
2017-04-20T01:40:00.366Z,0
2017-04-20T01:41:01.605Z,0
2017-04-20T01:42:02.834Z,0
2017-04-20T01:43:04.067Z,0
2017-04-20T01:44:05.324Z,0
2017-04-20T01:45:06.542Z,0
2017-04-20T01:46:07.833Z,0
2017-04-20T01:47:09.049Z,0
2017-04-20T01:48:10.282Z,0
2017-04-20T01:49:11.500Z,0
2017-04-20T01:50:12.744Z,0
2017-04-20T01:51:14.011Z,0
2017-04-20T01:52:15.278Z,0
2017-04-20T01:53:16.521Z,0
2017-04-20T01:54:17.787Z,0
2017-04-20T01:55:19.045Z,0
2017-04-20T01:56:20.304Z,0
2017-04-20T01:57:21.519Z,0
2017-04-20T01:58:22.754Z,0
2017-04-20T01:59:23.992Z,0
2017-04-20T02:00:25.471Z,0
2017-04-20T02:01:26.703Z,0
2017-04-20T02:02:27.944Z,0
2017-04-20T02:03:29.320Z,0
2017-04-20T02:04:30.450Z,0
2017-04-20T02:05:31.696Z,0
2017-04-20T02:06:33.007Z,0
2017-04-20T02:07:34.245Z,0
2017-04-20T02:08:35.524Z,0
2017-04-20T02:09:36.757Z,0
2017-04-20T02:10:37.984Z,0
2017-04-20T02:11:39.273Z,0
2017-04-20T02:12:40.494Z,0
2017-04-20T02:13:41.805Z,0
2017-04-20T02:14:43.061Z,0
2017-04-20T02:15:44.265Z,0
2017-04-20T02:16:45.527Z,0
2017-04-20T02:17:46.846Z,0
2017-04-20T02:18:48.107Z,0
2017-04-20T02:19:49.425Z,0
2017-04-20T02:20:50.657Z,0
2017-04-20T02:21:51.886Z,0
2017-04-20T02:22:53.126Z,0
2017-04-20T02:23:54.364Z,0
2017-04-20T02:24:55.597Z,0
2017-04-20T02:25:56.837Z,0
2017-04-20T02:26:58.158Z,0
2017-04-20T02:27:59.420Z,0
2017-04-20T02:29:00.648Z,0
2017-04-20T02:30:01.879Z,0
2017-04-20T02:31:03.121Z,0
2017-04-20T02:32:04.341Z,0
2017-04-20T02:33:05.595Z,0
2017-04-20T02:34:06.819Z,0
2017-04-20T02:35:08.049Z,0
2017-04-20T02:36:09.392Z,0
2017-04-20T02:37:10.634Z,0
2017-04-20T02:38:11.854Z,0
2017-04-20T02:39:13.197Z,0
2017-04-20T02:40:14.422Z,0
2017-04-20T02:41:15.786Z,0
2017-04-20T02:42:17.014Z,0
2017-04-20T02:43:18.247Z,0
2017-04-20T02:44:19.524Z,0
2017-04-20T02:45:20.781Z,0
2017-04-20T02:46:22.031Z,0
2017-04-20T02:47:23.364Z,0
2017-04-20T02:48:24.600Z,0
2017-04-20T02:49:25.854Z,0
2017-04-20T02:50:27.107Z,0
2017-04-20T02:51:28.347Z,0
2017-04-20T02:52:29.677Z,0
2017-04-20T02:53:30.930Z,0
2017-04-20T02:54:32.145Z,0
2017-04-20T02:55:33.365Z,0
2017-04-20T02:56:34.686Z,0
2017-04-20T02:57:35.968Z,0
2017-04-20T02:58:37.168Z,0
2017-04-20T02:59:38.400Z,0
2017-04-20T03:00:39.644Z,0
2017-04-20T03:01:40.866Z,0
2017-04-20T03:02:42.105Z,0
2017-04-20T03:03:43.488Z,0
2017-04-20T03:04:44.719Z,0
2017-04-20T03:05:45.958Z,0
2017-04-20T03:06:47.185Z,0
2017-04-20T03:07:48.426Z,0
2017-04-20T03:08:49.713Z,0
2017-04-20T03:09:50.940Z,0
2017-04-20T03:10:52.201Z,0
2017-04-20T03:11:53.462Z,0
2017-04-20T03:12:54.693Z,0
2017-04-20T03:13:55.918Z,0
2017-04-20T03:14:57.267Z,0
2017-04-20T03:15:58.675Z,0
2017-04-20T03:16:59.995Z,0
2017-04-20T03:18:01.244Z,0
2017-04-20T03:19:02.479Z,0
2017-04-20T03:20:03.707Z,0
2017-04-20T03:21:04.956Z,0
2017-04-20T03:22:06.221Z,0
2017-04-20T03:23:07.461Z,0
2017-04-20T03:24:08.700Z,0
2017-04-20T03:25:09.936Z,0
2017-04-20T03:26:11.261Z,0
2017-04-20T03:27:12.587Z,0
2017-04-20T03:28:13.933Z,0
2017-04-20T03:29:15.168Z,0
2017-04-20T03:30:16.404Z,0
2017-04-20T03:31:17.647Z,0
2017-04-20T03:32:18.877Z,0
2017-04-20T03:33:20.133Z,0
2017-04-20T03:34:21.368Z,0
2017-04-20T03:35:22.640Z,0
2017-04-20T03:36:23.879Z,0
2017-04-20T03:37:25.109Z,0
2017-04-20T03:38:26.338Z,0
2017-04-20T03:39:27.582Z,0
2017-04-20T03:40:28.929Z,0
2017-04-20T03:41:30.072Z,0
2017-04-20T03:42:31.335Z,0
2017-04-20T03:43:32.583Z,0
2017-04-20T03:44:33.835Z,0
2017-04-20T03:45:35.061Z,0
2017-04-20T03:46:36.445Z,0
2017-04-20T03:47:37.676Z,0
2017-04-20T03:48:38.953Z,0
2017-04-20T03:49:40.195Z,0
2017-04-20T03:50:41.444Z,0
2017-04-20T03:51:42.682Z,0
2017-04-20T03:52:43.913Z,0
2017-04-20T03:53:45.139Z,0
2017-04-20T03:54:46.371Z,0
2017-04-20T03:55:47.618Z,0
2017-04-20T03:56:48.887Z,0
2017-04-20T03:57:50.126Z,0
2017-04-20T03:58:51.399Z,0
2017-04-20T03:59:52.644Z,0
2017-04-20T04:00:53.875Z,0
2017-04-20T04:01:55.103Z,0
2017-04-20T04:02:56.341Z,0
2017-04-20T04:03:57.566Z,0
2017-04-20T04:04:58.794Z,0
2017-04-20T04:06:00.027Z,0
2017-04-20T04:07:01.253Z,0
2017-04-20T04:08:02.589Z,0
2017-04-20T04:09:03.816Z,0
2017-04-20T04:10:05.148Z,0
2017-04-20T04:11:06.371Z,0
2017-04-20T04:12:07.625Z,0
2017-04-20T04:13:08.850Z,5
2017-04-20T04:14:10.076Z,5
2017-04-20T04:15:11.412Z,5
2017-04-20T04:16:12.642Z,5
2017-04-20T04:17:13.879Z,5
2017-04-20T04:18:15.110Z,10
2017-04-20T04:19:16.337Z,10
2017-04-20T04:20:17.571Z,10
2017-04-20T04:21:18.805Z,10
2017-04-20T04:22:20.042Z,10
2017-04-20T04:23:21.289Z,15
2017-04-20T04:24:22.498Z,15
2017-04-20T04:25:23.736Z,15
2017-04-20T04:26:25.107Z,20
2017-04-20T04:27:26.329Z,20
2017-04-20T04:28:27.615Z,25
2017-04-20T04:29:28.906Z,25
2017-04-20T04:30:30.130Z,30
2017-04-20T04:31:31.414Z,30
2017-04-20T04:32:32.645Z,30
2017-04-20T04:33:34.014Z,35
2017-04-20T04:34:35.341Z,35
2017-04-20T04:35:36.594Z,40
2017-04-20T04:36:37.859Z,40
2017-04-20T04:37:39.056Z,45
2017-04-20T04:38:40.397Z,45
2017-04-20T04:39:41.612Z,45
2017-04-20T04:40:42.861Z,45
2017-04-20T04:41:44.148Z,50
2017-04-20T04:42:45.379Z,50
2017-04-20T04:43:46.603Z,55
2017-04-20T04:44:47.848Z,55
2017-04-20T04:45:49.151Z,55
2017-04-20T04:46:50.485Z,55
2017-04-20T04:47:51.715Z,60
2017-04-20T04:48:53.004Z,60
2017-04-20T04:49:54.255Z,65
2017-04-20T04:50:55.477Z,70
2017-04-20T04:51:56.763Z,70
2017-04-20T04:52:58.011Z,70
2017-04-20T04:53:59.237Z,75
2017-04-20T04:55:00.475Z,80
2017-04-20T04:56:01.723Z,85
2017-04-20T04:57:02.946Z,85
2017-04-20T04:58:04.226Z,90
2017-04-20T04:59:05.464Z,90
2017-04-20T05:00:06.688Z,95
2017-04-20T05:01:07.955Z,100
2017-04-20T05:02:09.215Z,105
2017-04-20T05:03:10.455Z,110
2017-04-20T05:04:11.699Z,120
2017-04-20T05:05:12.955Z,125
2017-04-20T05:06:14.187Z,130
2017-04-20T05:07:15.526Z,130
2017-04-20T05:08:16.757Z,140
2017-04-20T05:09:17.982Z,150
2017-04-20T05:10:19.246Z,165
2017-04-20T05:11:20.466Z,170
2017-04-20T05:12:21.805Z,175
2017-04-20T05:13:23.054Z,175
2017-04-20T05:14:24.296Z,195
2017-04-20T05:15:25.526Z,225
2017-04-20T05:16:26.755Z,245
2017-04-20T05:17:27.982Z,250
2017-04-20T05:18:29.206Z,255
2017-04-20T05:19:30.550Z,270
2017-04-20T05:20:31.795Z,270
2017-04-20T05:21:33.018Z,285
2017-04-20T05:22:34.247Z,275
2017-04-20T05:23:35.536Z,280
2017-04-20T05:24:36.774Z,290
2017-04-20T05:25:38.114Z,285
2017-04-20T05:26:39.357Z,310
2017-04-20T05:27:40.584Z,305
2017-04-20T05:28:41.858Z,310
2017-04-20T05:29:43.103Z,320
2017-04-20T05:30:44.343Z,335
2017-04-20T05:31:45.588Z,345
2017-04-20T05:32:46.949Z,350
2017-04-20T05:33:48.207Z,355
2017-04-20T05:34:49.482Z,365
2017-04-20T05:35:50.722Z,370
2017-04-20T05:36:52.078Z,370
2017-04-20T05:37:53.325Z,385
2017-04-20T05:38:54.584Z,395
2017-04-20T05:39:55.820Z,415
2017-04-20T05:40:57.054Z,425
2017-04-20T05:41:58.287Z,430
2017-04-20T05:42:59.556Z,435
2017-04-20T05:44:00.853Z,435
2017-04-20T05:45:02.091Z,435
2017-04-20T05:46:03.451Z,445
2017-04-20T05:47:04.690Z,455
2017-04-20T05:48:05.946Z,460
2017-04-20T05:49:07.229Z,465
2017-04-20T05:50:08.457Z,490
2017-04-20T05:51:09.686Z,490
2017-04-20T05:52:10.907Z,500
2017-04-20T05:53:12.199Z,505
2017-04-20T05:54:13.538Z,510
2017-04-20T05:55:14.750Z,520
2017-04-20T05:56:16.110Z,520
2017-04-20T05:57:17.352Z,515
2017-04-20T05:58:18.605Z,510
2017-04-20T05:59:19.970Z,490
2017-04-20T06:00:21.213Z,485
2017-04-20T06:01:22.460Z,510
2017-04-20T06:02:23.709Z,535
2017-04-20T06:03:24.981Z,550
2017-04-20T06:04:26.228Z,565
2017-04-20T06:05:27.468Z,575
2017-04-20T06:06:28.709Z,590
2017-04-20T06:07:30.011Z,600
2017-04-20T06:08:31.283Z,615
2017-04-20T06:09:32.537Z,625
2017-04-20T06:10:33.802Z,640
2017-04-20T06:11:35.024Z,625
2017-04-20T06:12:36.269Z,620
2017-04-20T06:13:37.513Z,640
2017-04-20T06:14:38.750Z,620
2017-04-20T06:15:40.112Z,650
2017-04-20T06:16:41.477Z,680
2017-04-20T06:17:42.726Z,635
2017-04-20T06:18:43.951Z,740
2017-04-20T06:19:45.211Z,755
2017-04-20T06:20:46.456Z,775
2017-04-20T06:21:47.726Z,800
2017-04-20T06:22:49.044Z,810
2017-04-20T06:23:50.302Z,825
2017-04-20T06:24:51.544Z,855
2017-04-20T06:25:52.784Z,865
2017-04-20T06:26:54.059Z,860
2017-04-20T06:27:55.286Z,895
2017-04-20T06:28:56.530Z,875
2017-04-20T06:29:57.789Z,835
2017-04-20T06:30:59.127Z,900
2017-04-20T06:32:00.362Z,925
2017-04-20T06:33:01.718Z,975
2017-04-20T06:34:03.061Z,1025
2017-04-20T06:35:04.298Z,1090
2017-04-20T06:36:05.545Z,1120
2017-04-20T06:37:06.784Z,1135
2017-04-20T06:38:08.061Z,1135
2017-04-20T06:39:09.278Z,1160
2017-04-20T06:40:10.548Z,1185
2017-04-20T06:41:11.912Z,1205
2017-04-20T06:42:13.169Z,1205
2017-04-20T06:43:14.420Z,1235
2017-04-20T06:44:15.768Z,1265
2017-04-20T06:45:17.023Z,1280
2017-04-20T06:46:18.375Z,1065
2017-04-20T06:47:19.614Z,1115
2017-04-20T06:48:20.877Z,1070
2017-04-20T06:49:22.127Z,1135
2017-04-20T06:50:23.405Z,1195
2017-04-20T06:51:24.699Z,1315
2017-04-20T06:52:25.922Z,1285
2017-04-20T06:53:27.192Z,1335
2017-04-20T06:54:28.435Z,1325
2017-04-20T06:55:29.761Z,1335
2017-04-20T06:56:31.004Z,1310
2017-04-20T06:57:32.268Z,1320
2017-04-20T06:58:33.589Z,1370
2017-04-20T06:59:34.819Z,1425
2017-04-20T07:00:36.082Z,1465
2017-04-20T07:01:37.576Z,1495
2017-04-20T07:02:38.797Z,1510
2017-04-20T07:03:40.047Z,1525
2017-04-20T07:04:41.406Z,1360
2017-04-20T07:05:42.644Z,1400
2017-04-20T07:06:43.892Z,1345
2017-04-20T07:07:45.159Z,1405
2017-04-20T07:08:46.532Z,1395
2017-04-20T07:09:47.869Z,1690
2017-04-20T07:10:49.115Z,1690
2017-04-20T07:11:50.390Z,1715
2017-04-20T07:12:51.644Z,1775
2017-04-20T07:13:52.994Z,1740
2017-04-20T07:14:54.216Z,1515
2017-04-20T07:15:55.473Z,1605
2017-04-20T07:16:56.712Z,1755
2017-04-20T07:17:57.957Z,1730
2017-04-20T07:18:59.216Z,1730
2017-04-20T07:20:00.465Z,1725
2017-04-20T07:21:01.722Z,1835
2017-04-20T07:22:03.021Z,1880
2017-04-20T07:23:04.272Z,1765
2017-04-20T07:24:05.530Z,1765
2017-04-20T07:25:06.788Z,1840
2017-04-20T07:26:08.051Z,1805
2017-04-20T07:27:09.429Z,1915
2017-04-20T07:28:10.808Z,1930
2017-04-20T07:29:11.969Z,1765
2017-04-20T07:30:13.300Z,1785
2017-04-20T07:31:14.533Z,1900
2017-04-20T07:32:15.913Z,1785
2017-04-20T07:33:17.198Z,1875
2017-04-20T07:34:18.496Z,1965
2017-04-20T07:35:19.738Z,1945
2017-04-20T07:36:20.989Z,1915
2017-04-20T07:37:22.239Z,2040
2017-04-20T07:38:23.588Z,2025
2017-04-20T07:39:24.851Z,2025
2017-04-20T07:40:26.114Z,1965
2017-04-20T07:41:27.370Z,1870
2017-04-20T07:42:28.690Z,1680
2017-04-20T07:43:29.931Z,1665
2017-04-20T07:44:31.258Z,1790
2017-04-20T07:45:32.502Z,1740
2017-04-20T07:46:33.740Z,1675
2017-04-20T07:47:35.012Z,1700
2017-04-20T07:48:36.244Z,1665
2017-04-20T07:49:37.613Z,1575
2017-04-20T07:50:38.877Z,1485
2017-04-20T07:51:40.145Z,1665
2017-04-20T07:52:41.490Z,1525
2017-04-20T07:53:42.761Z,1755
2017-04-20T07:54:43.998Z,1915
2017-04-20T07:55:45.273Z,1935
2017-04-20T07:56:46.642Z,1775
2017-04-20T07:57:47.976Z,1785
2017-04-20T07:58:49.253Z,1750
2017-04-20T07:59:50.523Z,1745
2017-04-20T08:00:51.819Z,1765
2017-04-20T08:01:53.060Z,1480
2017-04-20T08:02:54.378Z,1560
2017-04-20T08:03:55.651Z,1665
2017-04-20T08:04:56.972Z,1625
2017-04-20T08:05:58.262Z,1765
2017-04-20T08:06:59.626Z,1805
2017-04-20T08:08:00.885Z,1775
2017-04-20T08:09:02.127Z,1760
2017-04-20T08:10:03.425Z,1700
2017-04-20T08:11:04.652Z,1650
2017-04-20T08:12:05.916Z,1595
2017-04-20T08:13:07.170Z,1535
2017-04-20T08:14:08.444Z,1520
2017-04-20T08:15:09.811Z,1275
2017-04-20T08:16:11.122Z,1595
2017-04-20T08:17:12.424Z,1555
2017-04-20T08:18:13.666Z,1625
2017-04-20T08:19:14.951Z,1735
2017-04-20T08:20:16.186Z,1860
2017-04-20T08:21:17.449Z,1795
2017-04-20T08:22:18.700Z,1745
2017-04-20T08:23:19.947Z,1560
2017-04-20T08:24:21.207Z,1855
2017-04-20T08:25:22.461Z,1850
2017-04-20T08:26:23.746Z,1750
2017-04-20T08:27:25.077Z,1945
2017-04-20T08:28:26.426Z,1975
2017-04-20T08:29:27.667Z,1960
2017-04-20T08:30:28.939Z,2075
2017-04-20T08:31:30.189Z,2015
2017-04-20T08:32:31.544Z,1810
2017-04-20T08:33:32.797Z,1770
2017-04-20T08:34:34.048Z,1875
2017-04-20T08:35:35.326Z,2025
2017-04-20T08:36:36.603Z,2095
2017-04-20T08:37:37.861Z,2050
2017-04-20T08:38:39.188Z,2045
2017-04-20T08:39:40.464Z,2090
2017-04-20T08:40:41.750Z,1995
2017-04-20T08:41:42.999Z,2125
2017-04-20T08:42:44.248Z,2145
2017-04-20T08:43:45.575Z,2140
2017-04-20T08:44:46.809Z,2180
2017-04-20T08:45:48.072Z,2275
2017-04-20T08:46:49.337Z,2295
2017-04-20T08:47:50.584Z,2255
2017-04-20T08:48:51.851Z,2345
2017-04-20T08:49:53.094Z,2370
2017-04-20T08:50:54.369Z,2360
2017-04-20T08:51:55.736Z,2325
2017-04-20T08:52:56.979Z,2410
2017-04-20T08:53:58.233Z,2270
2017-04-20T08:54:59.561Z,2375
2017-04-20T08:56:00.818Z,2465
2017-04-20T08:57:02.089Z,2465
2017-04-20T08:58:03.465Z,2500
2017-04-20T08:59:04.707Z,2460
2017-04-20T09:00:05.983Z,2425
2017-04-20T09:01:07.249Z,2405
2017-04-20T09:02:08.514Z,2220
2017-04-20T09:03:09.883Z,2210
2017-04-20T09:04:11.186Z,2230
2017-04-20T09:05:12.445Z,2350
2017-04-20T09:06:13.692Z,2425
2017-04-20T09:07:14.949Z,2415
2017-04-20T09:08:16.197Z,2625
2017-04-20T09:09:17.463Z,2715
2017-04-20T09:10:18.766Z,2625
2017-04-20T09:11:20.027Z,2485
2017-04-20T09:12:21.282Z,2745
2017-04-20T09:13:22.531Z,2585
2017-04-20T09:14:23.956Z,2680
2017-04-20T09:15:25.194Z,2690
2017-04-20T09:16:26.469Z,2815
2017-04-20T09:17:27.820Z,2840
2017-04-20T09:18:29.067Z,2715
2017-04-20T09:19:30.329Z,2460
2017-04-20T09:20:31.680Z,2580
2017-04-20T09:21:32.936Z,2615
2017-04-20T09:22:34.182Z,2610
2017-04-20T09:23:35.488Z,2650
2017-04-20T09:24:36.737Z,2605
2017-04-20T09:25:38.008Z,2690
2017-04-20T09:26:39.281Z,2720
2017-04-20T09:27:40.520Z,2685
2017-04-20T09:28:41.783Z,2900
2017-04-20T09:29:43.061Z,2785
2017-04-20T09:30:44.293Z,2495
2017-04-20T09:31:45.543Z,2625
2017-04-20T09:32:46.791Z,2590
2017-04-20T09:33:48.104Z,2800
2017-04-20T09:34:49.397Z,2705
2017-04-20T09:35:50.657Z,2505
2017-04-20T09:36:51.915Z,2540
2017-04-20T09:37:53.169Z,2575
2017-04-20T09:38:54.429Z,2695
2017-04-20T09:39:55.797Z,2785
2017-04-20T09:40:57.045Z,2890
2017-04-20T09:41:58.305Z,2555
2017-04-20T09:42:59.794Z,2615
2017-04-20T09:44:01.119Z,3040
2017-04-20T09:45:02.346Z,3070
2017-04-20T09:46:03.700Z,2915
2017-04-20T09:47:04.948Z,2835
2017-04-20T09:48:06.221Z,2970
2017-04-20T09:49:07.531Z,2800
2017-04-20T09:50:08.727Z,2515
2017-04-20T09:51:10.099Z,2545
2017-04-20T09:52:11.445Z,2495
2017-04-20T09:53:12.724Z,2930
2017-04-20T09:54:13.968Z,2275
2017-04-20T09:55:15.288Z,2500
2017-04-20T09:56:16.503Z,1540
2017-04-20T09:57:17.807Z,1210
2017-04-20T09:58:19.071Z,2890
2017-04-20T09:59:20.323Z,2715
2017-04-20T10:00:21.633Z,1170
2017-04-20T10:01:22.887Z,890
2017-04-20T10:02:24.156Z,1060
2017-04-20T10:03:25.464Z,1055
2017-04-20T10:04:26.720Z,1735
2017-04-20T10:05:27.981Z,1980
2017-04-20T10:06:29.224Z,2395
2017-04-20T10:07:30.472Z,2385
2017-04-20T10:08:31.730Z,2685
2017-04-20T10:09:33.009Z,2770
2017-04-20T10:10:34.251Z,2760
2017-04-20T10:11:35.630Z,2720
2017-04-20T10:12:36.890Z,2930
2017-04-20T10:13:38.156Z,2860
2017-04-20T10:14:39.549Z,2810
2017-04-20T10:15:40.796Z,2355
2017-04-20T10:16:42.100Z,2530
2017-04-20T10:17:43.346Z,2600
2017-04-20T10:18:44.598Z,2490
2017-04-20T10:19:45.944Z,2375
2017-04-20T10:20:47.295Z,2240
2017-04-20T10:21:48.554Z,2255
2017-04-20T10:22:49.804Z,2560
2017-04-20T10:23:51.062Z,2615
2017-04-20T10:24:52.324Z,2620
2017-04-20T10:25:53.578Z,1975
2017-04-20T10:26:54.835Z,2110
2017-04-20T10:27:56.134Z,2560
2017-04-20T10:28:57.472Z,2385
2017-04-20T10:29:58.712Z,2380
2017-04-20T10:30:59.969Z,2480
2017-04-20T10:32:01.239Z,2540
2017-04-20T10:33:02.517Z,2585
2017-04-20T10:34:03.808Z,2310
2017-04-20T10:35:05.053Z,2130
2017-04-20T10:36:06.303Z,1920
2017-04-20T10:37:07.568Z,1130
2017-04-20T10:38:08.831Z,665
2017-04-20T10:39:10.105Z,620
2017-04-20T10:40:11.438Z,595
2017-04-20T10:41:12.695Z,585
2017-04-20T10:42:14.006Z,580
2017-04-20T10:43:15.267Z,570
2017-04-20T10:44:16.552Z,570
2017-04-20T10:45:17.910Z,560
2017-04-20T10:46:19.165Z,560
2017-04-20T10:47:20.431Z,565
2017-04-20T10:48:21.759Z,555
2017-04-20T10:49:23.045Z,555
2017-04-20T10:50:24.287Z,545
2017-04-20T10:51:25.548Z,530
2017-04-20T10:52:26.817Z,505
2017-04-20T10:53:28.068Z,505
2017-04-20T10:54:29.316Z,500
2017-04-20T10:55:30.563Z,510
2017-04-20T10:56:31.903Z,520
2017-04-20T10:57:33.132Z,520
2017-04-20T10:58:34.431Z,515
2017-04-20T10:59:35.780Z,505
2017-04-20T11:00:37.037Z,500
2017-04-20T11:01:38.281Z,495
2017-04-20T11:02:39.517Z,490
2017-04-20T11:03:40.817Z,490
2017-04-20T11:04:42.059Z,485
2017-04-20T11:05:43.299Z,480
2017-04-20T11:06:44.545Z,475
2017-04-20T11:07:46.045Z,485
2017-04-20T11:08:47.316Z,465
2017-04-20T11:09:48.607Z,475
2017-04-20T11:10:49.903Z,465
2017-04-20T11:11:51.148Z,465
2017-04-20T11:12:52.397Z,465
2017-04-20T11:13:53.803Z,465
2017-04-20T11:14:55.094Z,460
2017-04-20T11:15:56.399Z,455
2017-04-20T11:16:57.652Z,450
2017-04-20T11:17:58.909Z,445
2017-04-20T11:19:00.145Z,445
2017-04-20T11:20:01.376Z,435
2017-04-20T11:21:02.626Z,430
2017-04-20T11:22:03.920Z,425
2017-04-20T11:23:05.186Z,420
2017-04-20T11:24:06.443Z,415
2017-04-20T11:25:07.787Z,410
2017-04-20T11:26:09.098Z,410
2017-04-20T11:27:10.324Z,410
2017-04-20T11:28:11.563Z,405
2017-04-20T11:29:12.806Z,405
2017-04-20T11:30:14.081Z,400
2017-04-20T11:31:15.440Z,400
2017-04-20T11:32:16.606Z,395
2017-04-20T11:33:17.957Z,390
2017-04-20T11:34:19.206Z,385
2017-04-20T11:35:20.457Z,385
2017-04-20T11:36:21.768Z,380
2017-04-20T11:37:22.955Z,380
2017-04-20T11:38:24.205Z,380
2017-04-20T11:39:25.442Z,380
2017-04-20T11:40:26.682Z,375
2017-04-20T11:41:27.920Z,375
2017-04-20T11:42:29.165Z,370
2017-04-20T11:43:30.403Z,365
2017-04-20T11:44:31.641Z,370
2017-04-20T11:45:32.907Z,365
2017-04-20T11:46:34.143Z,370
2017-04-20T11:47:35.385Z,370
2017-04-20T11:48:36.646Z,375
2017-04-20T11:49:37.886Z,370
2017-04-20T11:50:39.134Z,365
2017-04-20T11:51:40.362Z,360
2017-04-20T11:52:41.608Z,365
2017-04-20T11:53:42.848Z,360
2017-04-20T11:54:44.095Z,355
2017-04-20T11:55:45.337Z,355
2017-04-20T11:56:46.591Z,350
2017-04-20T11:57:47.929Z,350
2017-04-20T11:58:49.184Z,350
2017-04-20T11:59:50.423Z,350
2017-04-20T12:00:51.689Z,345
2017-04-20T12:01:52.929Z,345
2017-04-20T12:02:54.176Z,345
2017-04-20T12:03:55.467Z,340
2017-04-20T12:04:56.714Z,340
2017-04-20T12:05:58.019Z,340
2017-04-20T12:06:59.254Z,340
2017-04-20T12:08:00.519Z,335
2017-04-20T12:09:01.800Z,330
2017-04-20T12:10:03.054Z,330
2017-04-20T12:11:04.306Z,330
2017-04-20T12:12:05.635Z,330
2017-04-20T12:13:06.894Z,325
2017-04-20T12:14:08.187Z,330
2017-04-20T12:15:09.530Z,325
2017-04-20T12:16:10.757Z,325
2017-04-20T12:17:12.025Z,320
2017-04-20T12:18:13.280Z,320
2017-04-20T12:19:14.522Z,315
2017-04-20T12:20:15.776Z,315
2017-04-20T12:21:17.030Z,310
2017-04-20T12:22:18.272Z,315
2017-04-20T12:23:19.549Z,315
2017-04-20T12:24:20.805Z,315
2017-04-20T12:25:22.143Z,310
2017-04-20T12:26:23.354Z,310
2017-04-20T12:27:24.599Z,310
2017-04-20T12:28:25.892Z,305
2017-04-20T12:29:27.236Z,310
2017-04-20T12:30:28.497Z,310
2017-04-20T12:31:29.774Z,305
2017-04-20T12:32:31.031Z,305
2017-04-20T12:33:32.271Z,305
2017-04-20T12:34:33.608Z,300
2017-04-20T12:35:34.871Z,300
2017-04-20T12:36:36.136Z,300
2017-04-20T12:37:37.384Z,300
2017-04-20T12:38:38.633Z,300
2017-04-20T12:39:39.903Z,295
2017-04-20T12:40:41.146Z,295
2017-04-20T12:41:42.391Z,295
2017-04-20T12:42:43.630Z,295
2017-04-20T12:43:44.871Z,295
2017-04-20T12:44:46.172Z,300
2017-04-20T12:45:47.423Z,290
2017-04-20T12:46:48.660Z,295
2017-04-20T12:47:49.907Z,290
2017-04-20T12:48:51.176Z,285
2017-04-20T12:49:52.401Z,285
2017-04-20T12:50:53.668Z,285
2017-04-20T12:51:55.241Z,285
2017-04-20T12:52:56.411Z,285
2017-04-20T12:53:57.637Z,285
2017-04-20T12:54:58.880Z,285
2017-04-20T12:56:00.148Z,285
2017-04-20T12:57:01.372Z,285
2017-04-20T12:58:02.610Z,285
2017-04-20T12:59:03.852Z,280
2017-04-20T13:00:05.089Z,280
2017-04-20T13:01:06.334Z,275
2017-04-20T13:02:07.791Z,280
2017-04-20T13:03:09.054Z,275
2017-04-20T13:04:10.294Z,270
2017-04-20T13:05:11.762Z,270
2017-04-20T13:06:13.017Z,270
2017-04-20T13:07:14.251Z,270
2017-04-20T13:08:15.506Z,270
2017-04-20T13:09:16.761Z,270
2017-04-20T13:10:18.021Z,270
2017-04-20T13:11:19.323Z,270
2017-04-20T13:12:20.590Z,265
2017-04-20T13:13:21.929Z,265
2017-04-20T13:14:23.248Z,265
2017-04-20T13:15:24.493Z,260
2017-04-20T13:16:25.739Z,265
2017-04-20T13:17:26.965Z,260
2017-04-20T13:18:28.303Z,260
2017-04-20T13:19:29.575Z,260
2017-04-20T13:20:30.802Z,255
2017-04-20T13:21:32.139Z,260
2017-04-20T13:22:33.372Z,255
2017-04-20T13:23:34.622Z,250
2017-04-20T13:24:35.995Z,250
2017-04-20T13:25:37.270Z,250
2017-04-20T13:26:38.514Z,250
2017-04-20T13:27:39.746Z,250
2017-04-20T13:28:40.986Z,245
2017-04-20T13:29:42.267Z,245
2017-04-20T13:30:43.516Z,245
2017-04-20T13:31:44.881Z,245
2017-04-20T13:32:46.135Z,240
2017-04-20T13:33:47.372Z,240
2017-04-20T13:34:48.620Z,240
2017-04-20T13:35:49.896Z,240
2017-04-20T13:36:51.202Z,235
2017-04-20T13:37:52.439Z,235
2017-04-20T13:38:53.707Z,235
2017-04-20T13:39:54.936Z,235
2017-04-20T13:40:56.193Z,235
2017-04-20T13:41:57.440Z,230
2017-04-20T13:42:58.676Z,230
2017-04-20T13:44:00.005Z,230
2017-04-20T13:45:01.263Z,230
2017-04-20T13:46:02.505Z,230
2017-04-20T13:47:03.769Z,230
2017-04-20T13:48:05.002Z,230
2017-04-20T13:49:06.289Z,230
2017-04-20T13:50:07.596Z,225
2017-04-20T13:51:08.837Z,225
2017-04-20T13:52:10.099Z,225
2017-04-20T13:53:11.337Z,225
2017-04-20T13:54:12.597Z,225
2017-04-20T13:55:13.856Z,220
2017-04-20T13:56:15.149Z,220
2017-04-20T13:57:16.431Z,220
2017-04-20T13:58:17.683Z,220
2017-04-20T13:59:18.950Z,220
2017-04-20T14:00:20.205Z,220
2017-04-20T14:01:21.499Z,215
2017-04-20T14:02:22.739Z,215
2017-04-20T14:03:23.993Z,220
2017-04-20T14:04:25.306Z,215
2017-04-20T14:05:26.620Z,215
2017-04-20T14:06:27.930Z,215
2017-04-20T14:07:29.235Z,215
2017-04-20T14:08:30.464Z,210
2017-04-20T14:09:31.726Z,210
2017-04-20T14:10:32.940Z,210
2017-04-20T14:11:34.398Z,210
2017-04-20T14:12:35.739Z,210
2017-04-20T14:13:36.990Z,210
2017-04-20T14:14:38.351Z,210
2017-04-20T14:15:39.726Z,210